createdAt,value
2018-08-10T00:01:24.128Z,100779.75
2018-08-10T00:04:01.106Z,100780.11
2018-08-10T00:06:29.942Z,100775.19
2018-08-10T00:08:58.389Z,100789.14
2018-08-10T00:11:27.529Z,100787.31
2018-08-10T00:13:57.212Z,100800.99
2018-08-10T00:16:36.918Z,100806.70
2018-08-10T00:19:13.402Z,100807.85
2018-08-10T00:21:42.574Z,100814.83
2018-08-10T00:24:11.898Z,100823.35
2018-08-10T00:26:44.684Z,100833.66
2018-08-10T00:29:18.361Z,100834.78
2018-08-10T00:31:47.580Z,100840.23
2018-08-10T00:34:20.067Z,100844.66
2018-08-10T00:36:50.050Z,100857.11
2018-08-10T00:39:19.396Z,100860.33
2018-08-10T00:41:49.322Z,100871.42
2018-08-10T00:44:18.663Z,100870.84
2018-08-10T00:46:49.404Z,100883.69
2018-08-10T00:49:17.634Z,100892.75
2018-08-10T00:51:45.964Z,100896.73
2018-08-10T00:54:15.804Z,100895.75
2018-08-10T00:56:44.251Z,100897.77
2018-08-10T00:59:15.106Z,100901.31
2018-08-10T01:01:44.973Z,100901.47
2018-08-10T01:04:15.531Z,100903.47
2018-08-10T01:06:45.903Z,100912.75
2018-08-10T01:09:15.806Z,100919.60
2018-08-10T01:11:46.905Z,100922.09
2018-08-10T01:14:17.015Z,100926.56
2018-08-10T01:16:45.122Z,100922.75
2018-08-10T01:19:13.311Z,100932.16
2018-08-10T01:21:41.348Z,100936.58
2018-08-10T01:24:09.491Z,100934.59
2018-08-10T01:26:37.568Z,100938.42
2018-08-10T01:29:05.768Z,100941.58
2018-08-10T01:31:33.891Z,100946.51
2018-08-10T01:34:01.966Z,100959.15
2018-08-10T01:36:30.059Z,100963.84
2018-08-10T01:38:58.133Z,100970.95
2018-08-10T01:41:26.222Z,100976.31
2018-08-10T01:43:54.379Z,100982.97
2018-08-10T01:46:29.002Z,100989.78
2018-08-10T01:48:57.138Z,100995.44
2018-08-10T01:51:25.295Z,100997.72
2018-08-10T01:53:53.399Z,100996.45
2018-08-10T01:56:21.519Z,100993.98
2018-08-10T01:58:49.610Z,101000.81
2018-08-10T02:01:17.788Z,101016.75
2018-08-10T02:03:45.896Z,101015.86
2018-08-10T02:06:13.993Z,101020.15
2018-08-10T02:08:42.289Z,101021.27
2018-08-10T02:11:10.373Z,101024.73
2018-08-10T02:13:38.488Z,101016.70
2018-08-10T02:16:06.585Z,101020.83
2018-08-10T02:18:34.704Z,101016.55
2018-08-10T02:21:02.802Z,101027.06
2018-08-10T02:23:30.940Z,101031.29
2018-08-10T02:25:59.067Z,101044.77
2018-08-10T02:28:27.142Z,101037.95
2018-08-10T02:30:55.802Z,101050.63
2018-08-10T02:33:23.890Z,101055.09
2018-08-10T02:35:51.985Z,101048.27
2018-08-10T02:38:20.048Z,101057.91
2018-08-10T02:40:48.151Z,101054.32
2018-08-10T02:43:16.221Z,101057.42
2018-08-10T02:45:44.347Z,101062.80
2018-08-10T02:48:12.446Z,101062.31
2018-08-10T02:50:40.530Z,101063.03
2018-08-10T02:53:08.660Z,101058.26
2018-08-10T02:55:36.752Z,101060.31
2018-08-10T02:58:04.879Z,101062.33
2018-08-10T03:00:32.987Z,101066.66
2018-08-10T03:03:01.138Z,101076.95
2018-08-10T03:05:29.229Z,101083.71
2018-08-10T03:07:57.342Z,101091.39
2018-08-10T03:10:25.456Z,101090.92
2018-08-10T03:12:53.585Z,101092.13
2018-08-10T03:15:21.627Z,101095.06
2018-08-10T03:17:49.700Z,101097.54
2018-08-10T03:20:17.763Z,101109.58
2018-08-10T03:22:45.864Z,101102.64
2018-08-10T03:25:14.767Z,101111.94
2018-08-10T03:27:42.867Z,101107.84
2018-08-10T03:30:11.922Z,101116.88
2018-08-10T03:32:40.067Z,101119.71
2018-08-10T03:35:08.230Z,101120.25
2018-08-10T03:37:36.751Z,101120.47
2018-08-10T03:40:06.202Z,101129.92
2018-08-10T03:42:34.313Z,101128.82
2018-08-10T03:45:02.371Z,101135.48
2018-08-10T03:47:30.467Z,101136.22
2018-08-10T03:49:58.618Z,101143.89
2018-08-10T03:52:26.680Z,101151.67
2018-08-10T03:54:54.791Z,101161.42
2018-08-10T03:57:22.846Z,101164.49
2018-08-10T03:59:50.906Z,101167.62
2018-08-10T04:02:18.967Z,101174.66
2018-08-10T04:04:47.014Z,101176.86
2018-08-10T04:07:15.077Z,101181.86
2018-08-10T04:09:43.140Z,101189.22
2018-08-10T04:12:11.223Z,101189.55
2018-08-10T04:14:39.286Z,101193.80
2018-08-10T04:17:11.590Z,101198.78
2018-08-10T04:19:39.659Z,101194.62
2018-08-10T04:22:07.999Z,101203.78
2018-08-10T04:24:36.068Z,101202.43
2018-08-10T04:27:04.145Z,101207.61
2018-08-10T04:29:32.250Z,101214.24
2018-08-10T04:32:00.264Z,101223.17
2018-08-10T04:34:28.324Z,101217.05
2018-08-10T04:36:56.420Z,101224.02
2018-08-10T04:39:24.584Z,101222.33
2018-08-10T04:41:52.679Z,101228.57
2018-08-10T04:44:20.731Z,101239.98
2018-08-10T04:46:48.783Z,101230.97
2018-08-10T04:49:16.854Z,101236.55
2018-08-10T04:51:44.952Z,101238.44
2018-08-10T04:54:13.009Z,101244.02
2018-08-10T04:56:41.104Z,101242.27
2018-08-10T04:59:09.144Z,101252.64
2018-08-10T05:01:37.255Z,101254.92
2018-08-10T05:04:05.326Z,101254.49
2018-08-10T05:06:33.439Z,101252.42
2018-08-10T05:09:01.497Z,101256.46
2018-08-10T05:11:29.579Z,101268.10
2018-08-10T05:13:57.651Z,101266.55
2018-08-10T05:16:25.750Z,101269.14
2018-08-10T05:18:53.938Z,101268.72
2018-08-10T05:21:22.022Z,101279.92
2018-08-10T05:23:50.095Z,101284.91
2018-08-10T05:26:18.212Z,101285.61
2018-08-10T05:28:46.254Z,101288.86
2018-08-10T05:31:14.356Z,101294.44
2018-08-10T05:33:42.443Z,101297.54
2018-08-10T05:36:10.509Z,101304.51
2018-08-10T05:38:38.612Z,101298.27
2018-08-10T05:41:06.678Z,101301.63
2018-08-10T05:43:34.764Z,101299.64
2018-08-10T05:46:02.952Z,101303.14
2018-08-10T05:48:35.249Z,101306.67
2018-08-10T05:51:03.435Z,101309.66
2018-08-10T05:53:31.487Z,101309.42
2018-08-10T05:55:59.543Z,101316.04
2018-08-10T05:58:27.615Z,101321.20
2018-08-10T06:00:55.701Z,101322.07
2018-08-10T06:03:24.735Z,101319.84
2018-08-10T06:05:52.695Z,101328.05
2018-08-10T06:08:20.796Z,101336.55
2018-08-10T06:10:48.850Z,101335.72
2018-08-10T06:13:17.039Z,101337.02
2018-08-10T06:15:45.119Z,101344.70
2018-08-10T06:18:13.181Z,101336.84
2018-08-10T06:20:41.230Z,101336.73
2018-08-10T06:23:09.311Z,101338.70
2018-08-10T06:25:37.407Z,101338.02
2018-08-10T06:28:05.531Z,101345.92
2018-08-10T06:30:33.587Z,101345.80
2018-08-10T06:33:01.657Z,101342.85
2018-08-10T06:35:29.724Z,101355.35
2018-08-10T06:37:57.834Z,101352.48
2018-08-10T06:40:25.876Z,101355.46
2018-08-10T06:42:53.944Z,101356.72
2018-08-10T06:45:22.014Z,101355.91
2018-08-10T06:47:50.060Z,101356.70
2018-08-10T06:50:18.122Z,101353.92
2018-08-10T06:52:46.189Z,101352.22
2018-08-10T06:55:14.246Z,101354.05
2018-08-10T06:57:42.313Z,101355.28
2018-08-10T07:00:10.391Z,101365.97
2018-08-10T07:02:38.446Z,101352.89
2018-08-10T07:05:06.858Z,101360.78
2018-08-10T07:07:34.992Z,101360.80
2018-08-10T07:10:03.008Z,101358.07
2018-08-10T07:12:31.083Z,101357.78
2018-08-10T07:14:59.214Z,101360.73
2018-08-10T07:17:27.301Z,101363.74
2018-08-10T07:19:55.342Z,101360.73
2018-08-10T07:22:23.434Z,101361.84
2018-08-10T07:24:51.487Z,101362.36
2018-08-10T07:27:19.576Z,101368.34
2018-08-10T07:29:47.602Z,101360.29
2018-08-10T07:32:15.663Z,101367.88
2018-08-10T07:34:43.730Z,101370.22
2018-08-10T07:37:11.803Z,101368.00
2018-08-10T07:39:39.854Z,101369.36
2018-08-10T07:42:07.912Z,101362.81
2018-08-10T07:44:35.958Z,101358.43
2018-08-10T07:47:04.011Z,101366.69
2018-08-10T07:49:32.071Z,101378.58
2018-08-10T07:52:00.173Z,101361.80
2018-08-10T07:54:28.257Z,101362.53
2018-08-10T07:56:56.316Z,101363.97
2018-08-10T07:59:24.414Z,101369.28
2018-08-10T08:01:52.491Z,101368.28
2018-08-10T08:04:20.559Z,101368.64
2018-08-10T08:06:48.629Z,101372.52
2018-08-10T08:09:16.735Z,101363.33
2018-08-10T08:11:44.787Z,101371.52
2018-08-10T08:14:12.852Z,101373.47
2018-08-10T08:16:40.920Z,101374.17
2018-08-10T08:19:08.992Z,101376.27
2018-08-10T08:21:37.064Z,101374.05
2018-08-10T08:24:05.231Z,101374.27
2018-08-10T08:26:39.880Z,101375.02
2018-08-10T08:29:07.952Z,101380.77
2018-08-10T08:31:36.031Z,101387.66
2018-08-10T08:34:06.867Z,101383.02
2018-08-10T08:36:35.016Z,101386.45
2018-08-10T08:39:27.189Z,101388.20
2018-08-10T08:41:55.261Z,101394.09
2018-08-10T08:44:35.979Z,101393.25
2018-08-10T08:47:05.271Z,101394.13
2018-08-10T08:49:33.923Z,101397.25
2018-08-10T08:52:02.105Z,101390.77
2018-08-10T08:55:34.538Z,101390.59
2018-08-10T08:58:02.651Z,101385.68
2018-08-10T09:00:30.730Z,101379.02
2018-08-10T09:02:58.870Z,101384.27
2018-08-10T09:05:26.923Z,101383.59
2018-08-10T09:07:55.031Z,101381.77
2018-08-10T09:10:23.092Z,101383.06
2018-08-10T09:12:51.148Z,101384.63
2018-08-10T09:15:20.375Z,101386.93
2018-08-10T09:17:49.458Z,101391.42
2018-08-10T09:20:17.619Z,101381.90
2018-08-10T09:22:45.615Z,101378.14
2018-08-10T09:25:15.312Z,101383.84
2018-08-10T09:27:43.413Z,101371.66
2018-08-10T09:30:13.212Z,101388.70
2018-08-10T09:32:41.661Z,101386.33
2018-08-10T09:35:10.581Z,101389.28
2018-08-10T09:37:38.655Z,101388.30
2018-08-10T09:40:21.709Z,101378.08
2018-08-10T09:42:49.766Z,101386.00
2018-08-10T09:45:18.315Z,101386.77
2018-08-10T09:47:47.320Z,101382.36
2018-08-10T09:50:15.835Z,101369.54
2018-08-10T09:52:55.795Z,101364.58
2018-08-10T09:55:36.913Z,101377.33
2018-08-10T09:58:09.237Z,101378.33
2018-08-10T10:00:42.749Z,101362.35
2018-08-10T10:03:16.636Z,101359.63
2018-08-10T10:05:45.128Z,101372.70
2018-08-10T10:08:13.548Z,101374.59
2018-08-10T10:10:41.649Z,101372.08
2018-08-10T10:13:09.699Z,101366.87
2018-08-10T10:15:37.784Z,101362.15
2018-08-10T10:18:08.422Z,101361.39
2018-08-10T10:20:36.535Z,101354.48
2018-08-10T10:23:04.604Z,101356.72
2018-08-10T10:25:32.678Z,101350.23
2018-08-10T10:28:00.793Z,101347.20
2018-08-10T10:30:28.919Z,101346.31
2018-08-10T10:32:56.994Z,101353.81
2018-08-10T10:35:25.149Z,101347.40
2018-08-10T10:37:53.246Z,101350.41
2018-08-10T10:40:21.286Z,101343.77
2018-08-10T10:42:49.493Z,101348.73
2018-08-10T10:45:17.608Z,101348.67
2018-08-10T10:47:46.879Z,101350.34
2018-08-10T10:50:15.355Z,101342.71
2018-08-10T10:52:43.495Z,101339.85
2018-08-10T10:55:11.867Z,101339.92
2018-08-10T10:57:40.836Z,101338.48
2018-08-10T11:00:12.107Z,101325.14
2018-08-10T11:02:40.436Z,101327.75
2018-08-10T11:05:08.776Z,101335.19
2018-08-10T11:07:37.387Z,101332.06
2018-08-10T11:10:06.851Z,101327.70
2018-08-10T11:12:34.907Z,101331.35
2018-08-10T11:15:03.006Z,101330.06
2018-08-10T11:17:31.184Z,101333.67
2018-08-10T11:19:59.390Z,101328.63
2018-08-10T11:22:27.590Z,101332.53
2018-08-10T11:24:55.832Z,101312.43
2018-08-10T11:27:24.035Z,101312.70
2018-08-10T11:29:52.308Z,101309.38
2018-08-10T11:32:20.503Z,101305.64
2018-08-10T11:34:48.697Z,101295.85
2018-08-10T11:37:16.931Z,101316.00
2018-08-10T11:39:45.458Z,101308.72
2018-08-10T11:42:15.635Z,101308.48
2018-08-10T11:44:44.836Z,101305.20
2018-08-10T11:47:13.088Z,101296.19
2018-08-10T11:49:41.347Z,101301.77
2018-08-10T11:52:09.620Z,101297.48
2018-08-10T11:54:37.845Z,101300.73
2018-08-10T11:57:06.118Z,101297.13
2018-08-10T11:59:34.379Z,101285.42
2018-08-10T12:02:02.708Z,101283.05
2018-08-10T12:04:30.880Z,101288.63
2018-08-10T12:06:59.125Z,101283.02
2018-08-10T12:09:27.399Z,101273.97
2018-08-10T12:11:55.683Z,101279.43
2018-08-10T12:14:23.957Z,101271.14
2018-08-10T12:16:52.192Z,101284.70
2018-08-10T12:19:20.436Z,101277.79
2018-08-10T12:21:48.671Z,101280.03
2018-08-10T12:24:16.908Z,101278.00
2018-08-10T12:26:45.137Z,101274.77
2018-08-10T12:29:13.380Z,101271.36
2018-08-10T12:31:41.627Z,101264.81
2018-08-10T12:34:09.833Z,101267.29
2018-08-10T12:36:38.075Z,101267.91
2018-08-10T12:39:09.929Z,101275.53
2018-08-10T12:41:38.169Z,101266.25
2018-08-10T12:44:06.439Z,101262.27
2018-08-10T12:46:34.645Z,101267.91
2018-08-10T12:49:02.735Z,101251.58
2018-08-10T12:51:30.941Z,101259.38
2018-08-10T12:53:59.308Z,101251.20
2018-08-10T12:56:27.450Z,101262.28
2018-08-10T12:58:56.106Z,101248.93
2018-08-10T13:01:24.297Z,101261.55
2018-08-10T13:03:52.496Z,101252.20
2018-08-10T13:06:20.705Z,101240.64
2018-08-10T13:08:48.913Z,101243.94
2018-08-10T13:11:17.150Z,101241.97
2018-08-10T13:13:45.377Z,101247.45
2018-08-10T13:16:13.595Z,101247.19
2018-08-10T13:18:41.827Z,101249.09
2018-08-10T13:21:10.050Z,101238.94
2018-08-10T13:23:38.259Z,101238.62
2018-08-10T13:26:06.965Z,101243.53
2018-08-10T13:28:35.178Z,101236.08
2018-08-10T13:31:03.531Z,101240.18
2018-08-10T13:33:31.757Z,101233.09
2018-08-10T13:36:00.015Z,101236.96
2018-08-10T13:38:28.239Z,101241.36
2018-08-10T13:40:56.745Z,101239.88
2018-08-10T13:43:24.923Z,101240.97
2018-08-10T13:45:53.216Z,101251.18
2018-08-10T13:48:21.447Z,101245.71
2018-08-10T13:50:49.683Z,101241.53
2018-08-10T13:53:17.972Z,101235.29
2018-08-10T13:55:46.144Z,101232.56
2018-08-10T13:58:14.344Z,101236.93
2018-08-10T14:00:42.589Z,101234.75
2018-08-10T14:03:10.809Z,101233.95
2018-08-10T14:05:39.051Z,101229.92
2018-08-10T14:08:07.342Z,101238.72
2018-08-10T14:10:35.567Z,101233.08
2018-08-10T14:13:03.812Z,101228.56
2018-08-10T14:15:32.047Z,101227.58
2018-08-10T14:18:00.223Z,101224.59
2018-08-10T14:20:28.412Z,101223.45
2018-08-10T14:22:56.838Z,101215.23
2018-08-10T14:25:25.061Z,101218.01
2018-08-10T14:27:53.344Z,101218.52
2018-08-10T14:30:21.480Z,101220.19
2018-08-10T14:32:49.696Z,101210.00
2018-08-10T14:35:17.864Z,101209.17
2018-08-10T14:37:46.066Z,101211.41
2018-08-10T14:40:14.323Z,101208.66
2018-08-10T14:42:42.955Z,101204.27
2018-08-10T14:45:13.389Z,101205.39
2018-08-10T14:47:41.529Z,101202.34
2018-08-10T14:50:11.421Z,101191.37
2018-08-10T14:52:39.604Z,101194.70
2018-08-10T14:55:09.596Z,101195.78
2018-08-10T14:57:37.856Z,101200.17
2018-08-10T15:00:09.335Z,101194.98
2018-08-10T15:02:37.582Z,101188.67
2018-08-10T15:05:05.951Z,101188.38
2018-08-10T15:07:35.786Z,101180.98
2018-08-10T15:10:04.712Z,101180.19
2018-08-10T15:12:33.028Z,101184.53
2018-08-10T15:15:00.891Z,101183.16
2018-08-10T15:17:29.253Z,101182.64
2018-08-10T15:19:57.365Z,101170.59
2018-08-10T15:22:25.445Z,101175.20
2018-08-10T15:24:53.563Z,101174.86
2018-08-10T15:27:21.595Z,101177.91
2018-08-10T15:29:49.645Z,101166.20
2018-08-10T15:32:17.811Z,101166.73
2018-08-10T15:34:45.911Z,101162.35
2018-08-10T15:37:13.990Z,101151.11
2018-08-10T15:39:42.061Z,101156.34
2018-08-10T15:42:10.139Z,101161.28
2018-08-10T15:44:38.260Z,101159.33
2018-08-10T15:47:06.338Z,101154.69
2018-08-10T15:49:34.425Z,101153.02
2018-08-10T15:52:02.487Z,101146.39
2018-08-10T15:54:30.586Z,101148.06
2018-08-10T15:56:58.671Z,101151.09
2018-08-10T15:59:26.744Z,101145.65
2018-08-10T16:01:54.827Z,101145.90
2018-08-10T16:04:22.903Z,101150.83
2018-08-10T16:06:51.004Z,101148.39
2018-08-10T16:09:19.067Z,101141.48
2018-08-10T16:11:47.147Z,101146.66
2018-08-10T16:14:15.272Z,101146.95
2018-08-10T16:16:43.378Z,101143.13
2018-08-10T16:19:11.493Z,101137.14
2018-08-10T16:21:39.608Z,101132.77
2018-08-10T16:24:07.861Z,101133.01
2018-08-10T16:26:35.936Z,101134.11
2018-08-10T16:29:05.813Z,101127.86
2018-08-10T16:31:44.674Z,101128.91
2018-08-10T16:34:13.436Z,101134.91
2018-08-10T16:36:41.815Z,101121.24
2018-08-10T16:39:11.747Z,101117.95
2018-08-10T16:41:44.240Z,101124.28
2018-08-10T16:44:16.969Z,101118.50
2018-08-10T16:46:46.933Z,101115.23
2018-08-10T16:49:18.531Z,101118.80
2018-08-10T16:51:46.671Z,101130.27
2018-08-10T16:54:15.807Z,101126.75
2018-08-10T16:56:44.944Z,101120.46
2018-08-10T16:59:13.274Z,101119.87
2018-08-10T17:01:42.266Z,101118.78
2018-08-10T17:04:11.109Z,101123.14
2018-08-10T17:06:42.588Z,101125.05
2018-08-10T17:09:12.720Z,101124.48
2018-08-10T17:11:40.943Z,101124.70
2018-08-10T17:14:09.560Z,101120.78
2018-08-10T17:16:38.115Z,101120.80
2018-08-10T17:19:06.682Z,101124.36
2018-08-10T17:21:34.844Z,101121.85
2018-08-10T17:24:07.197Z,101119.66
2018-08-10T17:26:41.931Z,101117.47
2018-08-10T17:29:10.164Z,101116.10
2018-08-10T17:31:38.350Z,101108.00
2018-08-10T17:34:06.548Z,101109.70
2018-08-10T17:36:36.559Z,101114.31
2018-08-10T17:39:09.521Z,101116.20
2018-08-10T17:41:37.626Z,101110.41
2018-08-10T17:44:05.779Z,101115.58
2018-08-10T17:46:33.940Z,101122.41
2018-08-10T17:49:02.038Z,101114.98
2018-08-10T17:51:30.119Z,101112.22
2018-08-10T17:53:58.200Z,101117.39
2018-08-10T17:56:26.269Z,101110.48
2018-08-10T17:58:54.459Z,101115.48
2018-08-10T18:01:22.499Z,101108.45
2018-08-10T18:03:50.590Z,101116.58
2018-08-10T18:06:19.220Z,101121.60
2018-08-10T18:08:47.496Z,101116.11
2018-08-10T18:11:19.515Z,101126.77
2018-08-10T18:13:50.168Z,101120.72
2018-08-10T18:16:22.755Z,101123.56
2018-08-10T18:19:00.090Z,101121.81
2018-08-10T18:21:31.072Z,101127.41
2018-08-10T18:24:00.108Z,101130.94
2018-08-10T18:26:31.541Z,101138.53
2018-08-10T18:29:07.385Z,101133.84
2018-08-10T18:31:42.092Z,101139.98
2018-08-10T18:34:17.999Z,101145.25
2018-08-10T18:36:48.323Z,101147.88
2018-08-10T18:39:23.408Z,101146.81
2018-08-10T18:41:57.917Z,101140.78
2018-08-10T18:44:30.284Z,101148.59
2018-08-10T18:52:03.884Z,101154.23
2018-08-10T18:54:34.568Z,101153.36
2018-08-10T18:57:16.155Z,101155.16
2018-08-10T18:59:49.733Z,101145.27
2018-08-10T20:20:36.635Z,101191.79
2018-08-10T20:23:15.223Z,101190.33
2018-08-10T20:25:47.509Z,101187.81
2018-08-10T20:28:19.679Z,101191.20
2018-08-10T20:30:52.542Z,101195.20
2018-08-10T20:33:26.710Z,101179.51
2018-08-10T20:36:03.746Z,101193.54
2018-08-10T20:38:43.440Z,101191.66
2018-08-10T20:41:22.242Z,101196.28
2018-08-10T20:44:01.801Z,101190.17
2018-08-10T20:46:46.748Z,101198.55
2018-08-10T20:49:32.862Z,101185.73
2018-08-10T20:52:12.014Z,101194.08
2018-08-10T20:54:41.686Z,101202.44
2018-08-10T20:57:15.614Z,101199.77
2018-08-10T21:00:02.385Z,101203.16
2018-08-10T21:02:35.717Z,101195.58
2018-08-10T21:05:06.800Z,101197.91
2018-08-10T21:07:36.569Z,101199.09
2018-08-10T21:10:13.690Z,101197.02
2018-08-10T21:12:45.587Z,101200.59
2018-08-10T21:15:15.086Z,101193.66
2018-08-10T21:17:46.367Z,101194.47
2018-08-10T21:20:16.570Z,101190.61
2018-08-10T21:22:46.266Z,101187.53
2018-08-10T21:25:19.397Z,101186.52
2018-08-10T21:27:49.374Z,101195.76
2018-08-10T21:30:19.529Z,101189.39
2018-08-10T21:38:33.499Z,101181.27
2018-08-10T21:41:05.879Z,101172.26
2018-08-10T21:43:40.194Z,101179.09
2018-08-10T21:46:08.979Z,101176.79
2018-08-10T21:48:41.575Z,101183.91
2018-08-10T21:51:11.674Z,101187.29
2018-08-10T21:59:21.598Z,101193.45
2018-08-10T22:01:51.793Z,101191.09
2018-08-10T22:04:29.399Z,101187.22
2018-08-10T22:07:00.416Z,101196.73
2018-08-10T22:09:29.308Z,101204.34
2018-08-10T22:12:05.418Z,101200.31
2018-08-10T22:14:39.084Z,101202.92
2018-08-10T22:17:14.265Z,101199.47
2018-08-10T22:19:44.296Z,101196.84
2018-08-10T22:22:15.007Z,101194.02
2018-08-10T22:24:44.264Z,101196.81
2018-08-10T22:27:15.318Z,101201.09
2018-08-10T22:29:43.913Z,101196.95
2018-08-10T22:32:17.334Z,101200.88
2018-08-10T22:34:45.602Z,101203.96
2018-08-10T22:37:15.780Z,101197.20
2018-08-10T22:39:43.903Z,101198.67
2018-08-10T22:42:11.984Z,101193.11
2018-08-10T22:44:46.511Z,101191.77
2018-08-10T22:47:14.641Z,101193.25
2018-08-10T22:49:42.702Z,101192.98
2018-08-10T22:52:10.758Z,101199.07
2018-08-10T22:54:39.075Z,101195.50
2018-08-10T22:57:07.163Z,101194.63
2018-08-10T22:59:35.232Z,101192.38
2018-08-10T23:02:03.308Z,101194.79
2018-08-10T23:04:31.360Z,101198.62
2018-08-10T23:06:59.793Z,101191.66
2018-08-10T23:09:27.892Z,101185.36
2018-08-10T23:11:55.958Z,101186.27
2018-08-10T23:14:24.033Z,101192.47
2018-08-10T23:16:52.122Z,101192.28
2018-08-10T23:19:20.179Z,101190.69
2018-08-10T23:21:48.242Z,101199.14
2018-08-10T23:24:16.311Z,101188.16
2018-08-10T23:26:44.385Z,101193.14
2018-08-10T23:29:12.465Z,101186.09
2018-08-10T23:31:40.530Z,101187.64
2018-08-10T23:34:08.607Z,101184.91
2018-08-10T23:36:36.715Z,101191.55
2018-08-10T23:39:07.655Z,101193.00
2018-08-10T23:41:35.743Z,101196.86
2018-08-10T23:44:03.830Z,101194.27
2018-08-10T23:46:31.920Z,101195.41
2018-08-10T23:49:00.029Z,101191.81
2018-08-10T23:51:28.139Z,101188.72
2018-08-10T23:53:56.211Z,101182.04
2018-08-10T23:56:24.286Z,101185.17
2018-08-10T23:58:52.577Z,101188.16
